Time;durP1;ratioP1;P1;durP2;ratioP2;P2;SDS_P1;SDS_P2;PMS_P1;PMS_P2;Temp;Humidity;BMP_temperature;BMP_pressure;BME280_temperature;BME280_humidity;BME280_pressure;Samples;Min_cycle;Max_cycle;Signal;HPM_P1;HPM_P2
2022/10/26 00:01:26;;;;;;;6.47;3.70;;;11.20;67.40;;;;;;4983144;28;46476;-67
2022/10/26 00:03:54;;;;;;;5.67;3.80;;;11.20;67.10;;;;;;4983862;28;46188;-67
2022/10/26 00:06:23;;;;;;;9.00;3.93;;;11.30;67.20;;;;;;4966305;28;46584;-67
2022/10/26 00:08:50;;;;;;;7.93;4.00;;;11.30;66.40;;;;;;4980830;28;47356;-67
2022/10/26 00:11:16;;;;;;;5.10;3.87;;;11.30;67.40;;;;;;4966119;28;46499;-67
2022/10/26 00:13:43;;;;;;;6.70;3.23;;;11.40;67.30;;;;;;4981981;28;46703;-67
2022/10/26 00:16:12;;;;;;;10.70;3.93;;;11.40;67.20;;;;;;4982657;28;46356;-67
2022/10/26 00:18:38;;;;;;;7.90;3.87;;;11.50;67.40;;;;;;4982480;28;46413;-66
2022/10/26 00:21:05;;;;;;;9.70;4.40;;;11.50;66.00;;;;;;4965493;28;45851;-67
2022/10/26 00:23:31;;;;;;;7.93;3.90;;;11.50;67.00;;;;;;4966652;28;46547;-67
2022/10/26 00:25:57;;;;;;;8.77;4.50;;;11.50;67.30;;;;;;4981826;28;46561;-67
2022/10/26 00:28:23;;;;;;;15.83;4.10;;;11.60;67.40;;;;;;4982886;28;46821;-67
2022/10/26 00:30:49;;;;;;;7.40;3.73;;;11.60;66.10;;;;;;4965556;28;46608;-67
2022/10/26 00:33:15;;;;;;;12.23;4.10;;;11.70;67.00;;;;;;4965678;28;46343;-66
2022/10/26 00:35:41;;;;;;;12.60;3.90;;;11.70;66.90;;;;;;4982386;28;46254;-67
2022/10/26 00:38:06;;;;;;;9.17;4.13;;;11.70;66.70;;;;;;4981879;28;47702;-67
2022/10/26 00:40:32;;;;;;;7.60;3.47;;;11.70;65.70;;;;;;4980581;28;46459;-67
2022/10/26 00:43:00;;;;;;;6.83;3.53;;;11.70;66.90;;;;;;4965985;28;46421;-66
2022/10/26 00:45:28;;;;;;;8.27;3.93;;;11.60;68.40;;;;;;4981292;28;46811;-67
2022/10/26 00:48:06;;;;;;;12.53;4.20;;;11.70;67.20;;;;;;4984205;28;46660;-67
2022/10/26 00:50:35;;;;;;;9.23;4.03;;;11.60;66.80;;;;;;4966536;28;46392;-67
2022/10/26 00:53:03;;;;;;;9.57;3.07;;;11.60;67.10;;;;;;4983535;28;46460;-67
2022/10/26 00:55:33;;;;;;;10.03;3.70;;;11.70;69.40;;;;;;4965622;28;45976;-67
2022/10/26 00:58:01;;;;;;;5.47;3.73;;;11.80;67.60;;;;;;4981686;28;46596;-67
2022/10/26 01:00:27;;;;;;;11.07;3.77;;;11.80;66.30;;;;;;4981341;28;46615;-66
2022/10/26 01:02:56;;;;;;;5.53;3.70;;;11.80;67.30;;;;;;4979773;28;46519;-67
2022/10/26 01:05:22;;;;;;;5.50;3.33;;;11.80;67.20;;;;;;4965234;28;46332;-67
2022/10/26 01:07:50;;;;;;;5.93;3.60;;;11.80;67.10;;;;;;4962968;28;47883;-67
2022/10/26 01:10:17;;;;;;;7.10;3.30;;;11.80;67.20;;;;;;4980649;28;46595;-67
2022/10/26 01:12:44;;;;;;;5.27;3.17;;;11.90;67.20;;;;;;4965632;28;46424;-67
2022/10/26 01:15:10;;;;;;;5.50;3.83;;;11.90;67.10;;;;;;4983002;28;46406;-67
2022/10/26 01:17:42;;;;;;;13.50;3.43;;;11.80;67.30;;;;;;4964603;28;46429;-66
2022/10/26 01:20:35;;;;;;;6.37;3.60;;;11.80;67.60;;;;;;4967587;28;46336;-67
2022/10/26 01:23:05;;;;;;;7.97;3.47;;;11.80;67.50;;;;;;4986071;28;46516;-66
2022/10/26 01:25:59;;;;;;;9.70;3.40;;;11.80;67.60;;;;;;4982343;28;46407;-67
2022/10/26 01:28:31;;;;;;;4.97;3.20;;;11.80;67.60;;;;;;4981181;28;47316;-67
2022/10/26 01:31:00;;;;;;;5.40;3.10;;;11.80;67.00;;;;;;4982410;28;46394;-67
2022/10/26 01:33:55;;;;;;;6.57;2.97;;;11.90;67.90;;;;;;4981370;28;46435;-66
2022/10/26 01:36:35;;;;;;;7.10;3.60;;;11.90;67.60;;;;;;4982319;28;46351;-67
2022/10/26 01:39:07;;;;;;;9.63;3.50;;;12.00;66.50;;;;;;4957352;28;46746;-67
2022/10/26 01:41:48;;;;;;;6.47;3.50;;;12.00;67.40;;;;;;4961699;28;46485;-67
2022/10/26 01:44:22;;;;;;;7.00;3.30;;;12.00;67.40;;;;;;4962505;28;45832;-66
2022/10/26 01:46:50;;;;;;;4.90;3.23;;;12.00;67.40;;;;;;4966120;28;45933;-67
2022/10/26 01:49:20;;;;;;;7.93;2.90;;;11.90;66.70;;;;;;4966443;28;48077;-67
2022/10/26 01:51:48;;;;;;;7.30;3.60;;;11.90;67.80;;;;;;4981759;28;46350;-67
2022/10/26 01:54:14;;;;;;;5.87;3.83;;;11.90;67.90;;;;;;4982857;28;46378;-67
2022/10/26 01:56:43;;;;;;;9.43;3.77;;;11.90;68.30;;;;;;4983467;28;46530;-67
2022/10/26 01:59:33;;;;;;;5.00;3.70;;;11.90;68.30;;;;;;4980784;28;48190;-67
2022/10/26 02:02:21;;;;;;;9.33;4.10;;;11.90;68.50;;;;;;4965191;28;46341;-67
2022/10/26 02:04:58;;;;;;;7.17;4.30;;;11.90;68.40;;;;;;4963474;28;46302;-67
2022/10/26 02:07:28;;;;;;;9.83;3.33;;;11.90;68.30;;;;;;4965746;28;46591;-67
2022/10/26 02:10:29;;;;;;;7.10;3.63;;;12.00;68.30;;;;;;4960914;28;48899;-67
2022/10/26 02:13:01;;;;;;;4.73;3.03;;;12.10;68.10;;;;;;4919131;28;46536;-67
2022/10/26 02:15:55;;;;;;;7.60;3.40;;;12.10;68.00;;;;;;4969115;28;46412;-67
2022/10/26 02:18:30;;;;;;;12.77;3.53;;;12.10;67.60;;;;;;4958884;28;46414;-67
2022/10/26 02:21:02;;;;;;;6.63;2.87;;;12.10;66.70;;;;;;4961806;28;47812;-67
2022/10/26 02:23:30;;;;;;;5.53;2.90;;;12.20;67.90;;;;;;4964357;28;45846;-67
2022/10/26 02:25:59;;;;;;;7.43;2.50;;;12.20;68.10;;;;;;4961607;28;46455;-68
2022/10/26 02:28:31;;;;;;;10.57;2.70;;;12.10;68.40;;;;;;4982087;28;46420;-67
2022/10/26 02:30:59;;;;;;;10.23;2.97;;;12.00;68.00;;;;;;4962177;28;47719;-67
2022/10/26 02:33:29;;;;;;;12.50;2.67;;;12.10;69.30;;;;;;4965405;28;46457;-67
2022/10/26 02:35:59;;;;;;;4.33;2.50;;;12.10;69.20;;;;;;4978643;28;46401;-67
2022/10/26 02:38:28;;;;;;;8.27;2.60;;;12.20;69.10;;;;;;4964332;28;46382;-67
2022/10/26 02:40:56;;;;;;;6.60;2.73;;;12.30;67.80;;;;;;4979273;28;46444;-67
2022/10/26 02:43:23;;;;;;;3.77;2.37;;;12.40;68.80;;;;;;4962033;28;46341;-68
2022/10/26 02:46:07;;;;;;;4.70;2.60;;;12.40;68.50;;;;;;4979873;28;46336;-67
2022/10/26 02:48:33;;;;;;;5.20;2.60;;;12.30;68.80;;;;;;4965689;28;46409;-67
2022/10/26 02:51:07;;;;;;;7.23;2.33;;;12.40;67.90;;;;;;4962763;28;48084;-67
2022/10/26 02:54:02;;;;;;;10.13;3.17;;;12.40;68.90;;;;;;4964451;28;46372;-67
2022/10/26 02:56:35;;;;;;;6.70;2.67;;;12.40;68.70;;;;;;4966841;28;46427;-68
2022/10/26 02:59:04;;;;;;;4.67;2.47;;;12.40;67.90;;;;;;4958231;28;46427;-68
2022/10/26 03:01:32;;;;;;;5.90;2.90;;;12.40;68.80;;;;;;4956523;28;48683;-67
2022/10/26 03:03:58;;;;;;;5.70;2.73;;;12.40;68.80;;;;;;4979743;28;45816;-67
2022/10/26 03:06:25;;;;;;;14.80;2.57;;;12.40;68.70;;;;;;4976966;28;46660;-68
2022/10/26 03:08:51;;;;;;;3.40;2.20;;;12.50;67.30;;;;;;4964567;28;46367;-68
2022/10/26 03:11:17;;;;;;;7.87;2.30;;;12.50;68.30;;;;;;4984638;28;48084;-68
2022/10/26 03:13:43;;;;;;;5.07;2.57;;;12.40;68.30;;;;;;4982992;28;46404;-67
2022/10/26 03:16:09;;;;;;;8.93;2.57;;;12.50;68.40;;;;;;4967805;28;46403;-68
2022/10/26 03:18:34;;;;;;;5.60;2.87;;;12.40;68.10;;;;;;4967069;28;45975;-67
2022/10/26 03:21:00;;;;;;;5.20;2.90;;;12.40;67.50;;;;;;4983678;28;47967;-67
2022/10/26 03:23:26;;;;;;;4.90;2.93;;;12.40;68.70;;;;;;4982419;28;46386;-67
2022/10/26 03:25:56;;;;;;;5.80;2.20;;;12.40;69.00;;;;;;4982695;28;46246;-68
2022/10/26 03:28:22;;;;;;;5.80;2.80;;;12.40;68.90;;;;;;4961391;28;46448;-67
2022/10/26 03:30:47;;;;;;;6.73;2.50;;;12.40;67.50;;;;;;4983313;28;46662;-68
2022/10/26 03:33:14;;;;;;;4.30;2.07;;;12.40;68.40;;;;;;4983393;28;46449;-68
2022/10/26 03:35:39;;;;;;;6.03;2.90;;;12.40;68.30;;;;;;4983051;28;46532;-67
2022/10/26 03:38:05;;;;;;;3.90;2.40;;;12.40;68.50;;;;;;4983162;28;46533;-67
2022/10/26 03:40:31;;;;;;;4.97;2.63;;;12.40;67.70;;;;;;4982428;28;49153;-67
2022/10/26 03:42:56;;;;;;;5.33;2.90;;;12.40;68.70;;;;;;4966593;28;46484;-67
2022/10/26 03:45:22;;;;;;;5.60;2.70;;;12.50;68.60;;;;;;4966723;28;46363;-67
2022/10/26 03:47:48;;;;;;;3.60;2.50;;;12.50;68.40;;;;;;4984062;28;46663;-68
2022/10/26 03:50:17;;;;;;;5.93;2.60;;;12.50;68.20;;;;;;4967524;28;47684;-68
2022/10/26 03:52:42;;;;;;;3.40;2.53;;;12.60;68.20;;;;;;4966543;28;46377;-67
2022/10/26 03:55:09;;;;;;;8.90;2.40;;;12.60;68.20;;;;;;4966419;28;46413;-68
2022/10/26 03:57:42;;;;;;;8.87;2.57;;;12.60;68.30;;;;;;4984651;28;46373;-68
2022/10/26 04:00:10;;;;;;;8.50;2.87;;;12.50;68.40;;;;;;4970303;28;47756;-68
2022/10/26 04:02:35;;;;;;;6.50;2.60;;;12.40;69.00;;;;;;4967643;28;46327;-68
2022/10/26 04:05:01;;;;;;;6.07;2.63;;;12.30;69.40;;;;;;4979653;28;47032;-69
2022/10/26 04:07:27;;;;;;;3.80;2.30;;;12.40;69.70;;;;;;4981940;28;46371;-69
2022/10/26 04:09:53;;;;;;;8.10;2.17;;;12.40;69.60;;;;;;4962934;28;46463;-69
2022/10/26 04:12:18;;;;;;;7.67;2.80;;;12.40;69.60;;;;;;4978627;28;46337;-69
2022/10/26 04:14:44;;;;;;;4.63;2.50;;;12.40;69.20;;;;;;4981948;28;46189;-68
2022/10/26 04:17:10;;;;;;;6.20;2.97;;;12.50;68.90;;;;;;4981676;28;46378;-69
2022/10/26 04:19:35;;;;;;;7.07;2.83;;;12.40;69.10;;;;;;4962124;28;48282;-69
2022/10/26 04:22:01;;;;;;;10.33;3.60;;;12.40;69.40;;;;;;4979789;28;46383;-69
2022/10/26 04:24:27;;;;;;;9.50;3.53;;;12.50;69.30;;;;;;4982394;28;46590;-68
2022/10/26 04:26:52;;;;;;;6.63;3.43;;;12.50;69.00;;;;;;4979878;28;46018;-68
2022/10/26 04:29:18;;;;;;;4.10;2.63;;;12.50;68.80;;;;;;4981152;28;48034;-66
2022/10/26 04:31:44;;;;;;;5.50;3.20;;;12.50;69.20;;;;;;4983825;28;46402;-68
2022/10/26 04:34:09;;;;;;;4.97;2.83;;;12.40;69.20;;;;;;4966901;28;46425;-68
2022/10/26 04:36:35;;;;;;;5.13;2.87;;;12.40;69.40;;;;;;4979180;28;46388;-70
2022/10/26 04:39:01;;;;;;;7.30;3.30;;;12.40;68.80;;;;;;4980350;28;47852;-68
2022/10/26 04:41:27;;;;;;;13.50;2.73;;;12.40;69.70;;;;;;4981169;28;46512;-68
2022/10/26 04:43:52;;;;;;;13.20;3.70;;;12.50;69.60;;;;;;4964573;28;46508;-67
2022/10/26 04:46:18;;;;;;;9.10;3.30;;;12.50;69.60;;;;;;4979375;28;46440;-68
2022/10/26 04:48:44;;;;;;;9.20;3.10;;;12.50;69.50;;;;;;4964953;28;47827;-69
2022/10/26 04:51:09;;;;;;;5.27;2.50;;;12.50;68.60;;;;;;4964744;28;46371;-67
2022/10/26 04:53:35;;;;;;;6.40;3.00;;;12.50;70.00;;;;;;4960988;28;46459;-67
2022/10/26 04:56:01;;;;;;;6.00;3.17;;;12.60;69.90;;;;;;4963966;28;46632;-68
2022/10/26 04:58:27;;;;;;;4.87;2.60;;;12.70;69.80;;;;;;4983040;28;48366;-68
2022/10/26 05:00:53;;;;;;;6.83;3.53;;;12.70;68.60;;;;;;4967438;28;46435;-68
2022/10/26 05:03:20;;;;;;;6.20;3.80;;;12.80;69.40;;;;;;4963256;28;46590;-68
2022/10/26 05:05:48;;;;;;;6.90;3.20;;;12.90;69.40;;;;;;4978986;28;45998;-71
2022/10/26 05:08:15;;;;;;;7.53;2.00;;;12.90;69.00;;;;;;4955087;28;46703;-68
2022/10/26 05:10:41;;;;;;;2.97;2.10;;;13.00;68.00;;;;;;4963661;28;46373;-68
2022/10/26 05:13:08;;;;;;;4.73;2.20;;;12.90;69.20;;;;;;4965081;28;46476;-71
2022/10/26 05:15:33;;;;;;;7.00;2.40;;;12.90;69.40;;;;;;4960666;28;46643;-67
2022/10/26 05:18:04;;;;;;;7.63;2.27;;;13.00;69.60;;;;;;4978735;28;48123;-68
2022/10/26 05:20:32;;;;;;;4.40;2.00;;;13.00;68.40;;;;;;4959844;28;46610;-68
2022/10/26 05:23:00;;;;;;;8.80;2.17;;;13.00;69.50;;;;;;4962964;28;46429;-68
2022/10/26 05:25:26;;;;;;;8.73;2.70;;;13.00;69.50;;;;;;4962225;28;46408;-66
2022/10/26 05:27:59;;;;;;;8.37;2.70;;;13.00;69.80;;;;;;4963475;28;49210;-69
2022/10/26 05:30:26;;;;;;;6.47;2.70;;;13.00;68.70;;;;;;4963899;28;46414;-67
2022/10/26 05:32:56;;;;;;;3.60;1.93;;;13.00;69.60;;;;;;4981966;28;46421;-67
2022/10/26 05:35:23;;;;;;;7.20;2.10;;;13.10;69.40;;;;;;4981053;28;46514;-67
2022/10/26 05:37:49;;;;;;;6.43;2.20;;;13.10;69.20;;;;;;4964555;28;47849;-67
2022/10/26 05:40:15;;;;;;;4.30;2.40;;;13.00;68.20;;;;;;4963479;28;46411;-67
2022/10/26 05:42:41;;;;;;;9.80;2.20;;;13.00;69.40;;;;;;4962604;28;46424;-67
2022/10/26 05:45:07;;;;;;;2.93;1.70;;;13.10;69.40;;;;;;4979514;28;46391;-67
2022/10/26 05:47:41;;;;;;;5.80;2.70;;;13.00;69.30;;;;;;4980056;28;46622;-69
2022/10/26 05:50:07;;;;;;;4.53;2.57;;;13.10;69.30;;;;;;4962999;28;46369;-67
2022/10/26 05:52:44;;;;;;;16.93;3.77;;;13.10;69.30;;;;;;4979163;28;46481;-67
2022/10/26 05:55:12;;;;;;;5.10;2.70;;;13.00;69.90;;;;;;4962064;28;46579;-69
2022/10/26 05:57:39;;;;;;;7.30;2.50;;;13.00;70.00;;;;;;4982308;28;47494;-66
2022/10/26 06:00:20;;;;;;;8.90;2.83;;;13.00;68.80;;;;;;4978025;28;46519;-68
2022/10/26 06:03:14;;;;;;;4.00;1.70;;;13.00;69.70;;;;;;4962873;28;46909;-67
2022/10/26 06:05:54;;;;;;;5.63;2.30;;;13.10;69.40;;;;;;4962313;28;46354;-67
2022/10/26 06:08:21;;;;;;;4.80;1.80;;;13.10;69.20;;;;;;4963317;28;47567;-68
2022/10/26 06:10:48;;;;;;;3.10;1.87;;;13.20;68.20;;;;;;4962294;28;46441;-68
2022/10/26 06:13:14;;;;;;;3.27;1.70;;;13.20;69.20;;;;;;4964787;28;46497;-67
2022/10/26 06:16:04;;;;;;;6.43;1.83;;;13.20;69.40;;;;;;4962739;28;46354;-68
2022/10/26 06:18:59;;;;;;;2.20;1.60;;;13.20;69.30;;;;;;4981204;28;46507;-66
2022/10/26 06:21:33;;;;;;;5.40;2.13;;;13.30;67.90;;;;;;4965209;28;46490;-67
2022/10/26 06:24:16;;;;;;;5.27;1.80;;;13.40;68.80;;;;;;4963690;28;46424;-66
2022/10/26 06:26:53;;;;;;;3.10;1.70;;;13.50;68.30;;;;;;4978630;28;46429;-66
2022/10/26 06:29:36;;;;;;;5.10;2.07;;;13.60;67.10;;;;;;4961389;28;47676;-66
2022/10/26 06:32:02;;;;;;;7.47;2.00;;;13.60;67.80;;;;;;4978975;28;46321;-67
2022/10/26 06:34:36;;;;;;;5.23;2.07;;;13.70;67.90;;;;;;4962995;28;46462;-67
2022/10/26 06:37:03;;;;;;;5.30;1.90;;;13.80;67.90;;;;;;4960900;28;46129;-70
2022/10/26 06:39:34;;;;;;;2.50;1.60;;;13.80;68.00;;;;;;4962223;28;46689;-67
2022/10/26 06:42:00;;;;;;;5.47;2.00;;;13.90;68.00;;;;;;4980551;28;46356;-67
2022/10/26 06:44:26;;;;;;;4.50;1.73;;;13.90;68.00;;;;;;4980586;28;46341;-66
2022/10/26 06:47:04;;;;;;;7.80;1.90;;;13.90;68.80;;;;;;4963648;28;46970;-67
2022/10/26 06:49:55;;;;;;;4.20;1.97;;;14.00;67.00;;;;;;4983973;28;46409;-66
2022/10/26 06:52:32;;;;;;;7.47;2.03;;;14.00;68.20;;;;;;4970212;28;46870;-69
2022/10/26 06:54:59;;;;;;;10.43;1.67;;;14.00;68.10;;;;;;4962604;28;46406;-69
2022/10/26 06:57:33;;;;;;;5.00;1.80;;;14.00;68.20;;;;;;4961884;28;46550;-69
2022/10/26 07:00:14;;;;;;;6.70;1.77;;;14.10;68.20;;;;;;4981659;28;48311;-67
2022/10/26 07:02:41;;;;;;;3.37;1.77;;;14.10;69.40;;;;;;4966518;28;46513;-68
2022/10/26 07:05:11;;;;;;;6.13;2.03;;;14.20;68.30;;;;;;4978642;28;46548;-68
2022/10/26 07:07:41;;;;;;;7.70;1.87;;;14.10;68.20;;;;;;4981082;28;46489;-68
2022/10/26 07:10:07;;;;;;;3.60;1.53;;;14.20;67.20;;;;;;4981004;28;46955;-68
2022/10/26 07:12:33;;;;;;;3.67;1.57;;;14.20;67.20;;;;;;4976004;28;46472;-68
2022/10/26 07:14:59;;;;;;;2.90;1.83;;;14.20;68.30;;;;;;4962647;28;46895;-67
2022/10/26 07:17:27;;;;;;;3.30;2.10;;;14.20;68.30;;;;;;4979427;28;46516;-69
2022/10/26 07:19:53;;;;;;;4.77;2.30;;;14.30;67.40;;;;;;4964171;28;47772;-69
2022/10/26 07:22:19;;;;;;;5.10;2.20;;;14.40;68.50;;;;;;4964790;28;46459;-68
2022/10/26 07:24:49;;;;;;;4.10;1.83;;;14.40;68.50;;;;;;4958875;28;46318;-68
2022/10/26 07:27:15;;;;;;;5.13;2.30;;;14.50;68.60;;;;;;4961992;28;46385;-68
2022/10/26 07:29:40;;;;;;;6.90;2.30;;;14.60;67.60;;;;;;4983166;28;46640;-68
2022/10/26 07:32:06;;;;;;;8.40;1.73;;;14.60;68.70;;;;;;4979502;28;46373;-69
2022/10/26 07:34:32;;;;;;;6.73;3.00;;;14.60;68.50;;;;;;4961238;28;46681;-68
2022/10/26 07:36:59;;;;;;;4.00;1.73;;;14.80;68.10;;;;;;4978633;28;46425;-69
2022/10/26 07:39:24;;;;;;;2.40;1.70;;;15.00;66.60;;;;;;4981807;28;47541;-69
2022/10/26 07:41:50;;;;;;;7.27;1.90;;;15.00;67.60;;;;;;4981035;28;46621;-67
2022/10/26 07:44:16;;;;;;;5.70;1.77;;;15.20;67.30;;;;;;4981085;28;46350;-68
2022/10/26 07:46:41;;;;;;;5.20;1.80;;;15.30;67.00;;;;;;4961374;28;46448;-68
2022/10/26 07:49:07;;;;;;;4.90;1.60;;;15.40;66.70;;;;;;4982580;28;46437;-68
2022/10/26 07:51:33;;;;;;;6.57;1.97;;;15.50;66.70;;;;;;4979342;28;46447;-69
2022/10/26 07:53:59;;;;;;;8.00;2.67;;;15.50;66.60;;;;;;4979800;28;46465;-67
2022/10/26 07:56:25;;;;;;;3.17;2.10;;;15.60;66.70;;;;;;4964671;28;46515;-67
2022/10/26 07:58:52;;;;;;;12.40;3.10;;;15.80;65.20;;;;;;4980627;28;48274;-70
2022/10/26 08:01:18;;;;;;;9.73;4.00;;;15.80;66.20;;;;;;4958546;28;46302;-68
2022/10/26 08:03:43;;;;;;;6.73;3.63;;;15.90;65.90;;;;;;4980628;28;46444;-68
2022/10/26 08:06:09;;;;;;;4.37;2.30;;;15.90;65.90;;;;;;4978876;28;46379;-68
2022/10/26 08:08:36;;;;;;;3.60;1.83;;;16.00;65.00;;;;;;4980275;28;47075;-71
2022/10/26 08:11:01;;;;;;;7.90;2.27;;;16.00;64.70;;;;;;4963346;28;46366;-66
2022/10/26 08:13:27;;;;;;;8.00;1.97;;;16.10;65.80;;;;;;4979883;28;46246;-67
2022/10/26 08:15:57;;;;;;;5.77;2.23;;;16.10;65.80;;;;;;4978728;28;46442;-68
2022/10/26 08:18:23;;;;;;;6.00;1.73;;;16.10;65.80;;;;;;4959403;28;48202;-68
2022/10/26 08:20:49;;;;;;;5.73;1.90;;;16.20;64.60;;;;;;4961531;28;46451;-67
2022/10/26 08:23:14;;;;;;;3.90;1.80;;;16.30;65.60;;;;;;4980748;28;46479;-69
2022/10/26 08:25:40;;;;;;;11.37;1.80;;;16.40;65.30;;;;;;4980565;28;46452;-67
2022/10/26 08:28:06;;;;;;;4.77;2.20;;;16.50;65.10;;;;;;4981208;28;48898;-67
2022/10/26 08:30:32;;;;;;;5.70;2.07;;;16.60;64.70;;;;;;4965046;28;46417;-69
2022/10/26 08:33:05;;;;;;;5.73;1.77;;;16.80;64.50;;;;;;4964642;28;45833;-68
2022/10/26 08:35:32;;;;;;;4.90;1.60;;;16.90;64.20;;;;;;4979798;28;46320;-68
2022/10/26 08:37:58;;;;;;;4.20;2.13;;;17.00;64.00;;;;;;4980604;28;47912;-69
2022/10/26 08:40:32;;;;;;;9.03;1.60;;;17.00;63.60;;;;;;4980956;28;46434;-69
2022/10/26 08:43:09;;;;;;;9.97;2.10;;;17.10;63.70;;;;;;4963281;28;45920;-69
2022/10/26 08:45:39;;;;;;;11.23;3.17;;;17.00;63.90;;;;;;4961972;28;46718;-70
2022/10/26 08:48:18;;;;;;;3.93;1.70;;;16.90;64.20;;;;;;4963303;28;46437;-66
2022/10/26 08:50:46;;;;;;;3.20;1.60;;;16.90;62.90;;;;;;4965444;28;46780;-68
2022/10/26 08:53:32;;;;;;;5.50;2.43;;;16.90;63.90;;;;;;4978754;28;46451;-70
2022/10/26 08:56:25;;;;;;;4.20;2.00;;;17.00;63.50;;;;;;4980115;28;45892;-70
2022/10/26 08:58:59;;;;;;;8.83;5.07;;;17.10;62.10;;;;;;4964047;28;48020;-70
2022/10/26 09:01:25;;;;;;;5.60;1.80;;;17.10;63.00;;;;;;4964041;28;46449;-69
2022/10/26 09:03:51;;;;;;;4.50;1.70;;;17.30;62.80;;;;;;4963731;28;46542;-68
2022/10/26 09:06:20;;;;;;;7.97;1.60;;;17.50;62.40;;;;;;4963086;28;46498;-69
2022/10/26 09:09:15;;;;;;;4.00;1.60;;;17.80;61.90;;;;;;4962414;28;47978;-69
2022/10/26 09:12:04;;;;;;;5.90;1.60;;;17.90;61.20;;;;;;4980678;28;46392;-69
2022/10/26 09:14:30;;;;;;;30.70;14.67;;;17.90;61.20;;;;;;4962845;28;46596;-69
2022/10/26 09:17:33;;;;;;;13.63;1.77;;;18.00;61.50;;;;;;4960455;28;46569;-68
2022/10/26 09:20:07;;;;;;;4.17;1.60;;;18.30;59.40;;;;;;4979874;28;46834;-69
2022/10/26 09:22:46;;;;;;;7.53;1.50;;;18.60;59.60;;;;;;4962932;28;46242;-68
2022/10/26 09:25:18;;;;;;;3.67;1.73;;;19.10;58.80;;;;;;4962440;28;46386;-68
2022/10/26 09:27:51;;;;;;;14.47;7.33;;;19.60;57.40;;;;;;4961080;28;46453;-68
2022/10/26 09:30:20;;;;;;;4.80;1.90;;;19.80;56.20;;;;;;4983495;28;47703;-68
2022/10/26 09:33:08;;;;;;;5.10;1.70;;;19.90;55.90;;;;;;4981277;28;46484;-68
2022/10/26 09:35:53;;;;;;;5.33;1.70;;;20.20;55.30;;;;;;4966021;28;46675;-67
2022/10/26 09:38:27;;;;;;;4.30;1.93;;;20.20;54.50;;;;;;4983577;28;46592;-68
2022/10/26 09:41:24;;;;;;;3.80;1.70;;;20.20;53.30;;;;;;4964101;28;48267;-68
2022/10/26 09:44:05;;;;;;;3.67;2.00;;;20.10;54.20;;;;;;4935727;28;46624;-67
2022/10/26 09:46:44;;;;;;;3.97;2.17;;;19.90;54.40;;;;;;4958778;28;46437;-67
2022/10/26 09:49:14;;;;;;;4.03;1.90;;;19.90;54.60;;;;;;4979755;28;46274;-67
2022/10/26 09:51:42;;;;;;;9.00;2.17;;;19.90;54.50;;;;;;4979525;28;46648;-67
2022/10/26 09:54:17;;;;;;;6.40;2.27;;;19.80;54.50;;;;;;4977722;28;46397;-67
2022/10/26 09:56:52;;;;;;;7.87;1.83;;;19.90;53.90;;;;;;4962757;28;46456;-67
2022/10/26 09:59:22;;;;;;;6.40;1.80;;;19.90;53.80;;;;;;4960494;28;46631;-67
2022/10/26 10:01:48;;;;;;;7.63;1.83;;;20.10;53.40;;;;;;4978064;28;48155;-67
2022/10/26 10:04:21;;;;;;;6.03;1.53;;;20.30;52.80;;;;;;4977860;28;46333;-67
2022/10/26 10:07:08;;;;;;;5.97;1.47;;;20.40;52.50;;;;;;4978791;28;46435;-67
2022/10/26 10:09:34;;;;;;;5.90;1.80;;;20.80;50.60;;;;;;4978360;28;46592;-67
2022/10/26 10:12:02;;;;;;;5.33;1.50;;;20.80;51.50;;;;;;4962960;28;48708;-67
2022/10/26 10:14:39;;;;;;;3.70;1.60;;;20.80;51.10;;;;;;4977717;28;46291;-67
2022/10/26 10:17:15;;;;;;;4.70;1.60;;;20.60;51.90;;;;;;4960893;28;46421;-67
2022/10/26 10:19:41;;;;;;;3.90;1.60;;;20.40;49.90;;;;;;4976900;28;46829;-67
2022/10/26 10:22:10;;;;;;;18.43;2.50;;;20.40;51.30;;;;;;4963118;28;46559;-67
2022/10/26 10:24:39;;;;;;;10.03;2.30;;;20.40;50.50;;;;;;4977174;28;46687;-68
2022/10/26 10:27:16;;;;;;;8.27;2.60;;;20.40;50.50;;;;;;4978108;28;46427;-67
2022/10/26 10:29:54;;;;;;;6.33;2.00;;;20.20;48.80;;;;;;4963379;28;46520;-67
2022/10/26 10:32:26;;;;;;;5.60;2.10;;;20.30;50.00;;;;;;4964192;28;48032;-67
2022/10/26 10:34:56;;;;;;;8.60;1.93;;;20.30;49.90;;;;;;4977246;28;45857;-67
2022/10/26 10:37:30;;;;;;;10.80;1.77;;;20.20;49.60;;;;;;4960658;28;46746;-67
2022/10/26 10:39:59;;;;;;;9.17;1.97;;;19.80;48.00;;;;;;4976982;28;46483;-67
2022/10/26 10:42:37;;;;;;;10.60;2.47;;;19.80;49.50;;;;;;4963658;28;46905;-67
2022/10/26 10:45:07;;;;;;;9.27;2.50;;;19.60;49.50;;;;;;4961983;28;46345;-67
2022/10/26 10:47:35;;;;;;;5.87;2.70;;;19.40;50.20;;;;;;4959635;28;46345;-67
2022/10/26 10:50:18;;;;;;;9.43;2.20;;;19.30;49.50;;;;;;4942424;28;46516;-67
2022/10/26 10:52:44;;;;;;;11.80;2.17;;;19.30;50.60;;;;;;4978681;28;47835;-67
2022/10/26 10:55:23;;;;;;;7.00;2.10;;;19.30;49.60;;;;;;4977951;28;46625;-67
2022/10/26 10:58:11;;;;;;;5.20;2.00;;;19.40;50.60;;;;;;4960354;28;46434;-68
2022/10/26 11:00:40;;;;;;;7.30;2.03;;;19.30;49.40;;;;;;4977757;28;46860;-67
2022/10/26 11:03:15;;;;;;;10.50;2.77;;;19.20;50.70;;;;;;4975933;28;46724;-67
2022/10/26 11:06:04;;;;;;;6.63;1.80;;;19.10;50.70;;;;;;4958378;28;46375;-67
2022/10/26 11:08:52;;;;;;;10.70;2.00;;;19.10;50.60;;;;;;4959803;28;46509;-68
2022/10/26 11:11:21;;;;;;;4.10;1.73;;;19.00;49.40;;;;;;4960355;28;46688;-67
2022/10/26 11:13:53;;;;;;;10.53;1.90;;;19.00;50.50;;;;;;4977015;28;46764;-67
2022/10/26 11:16:29;;;;;;;8.43;2.43;;;19.10;50.20;;;;;;4960540;28;46575;-67
2022/10/26 11:19:10;;;;;;;12.00;2.30;;;19.10;48.80;;;;;;4980798;28;46764;-67
2022/10/26 11:21:38;;;;;;;6.90;1.80;;;19.10;49.90;;;;;;4977797;28;46503;-67
2022/10/26 11:24:30;;;;;;;14.27;3.17;;;19.10;49.90;;;;;;4962561;28;48036;-67
2022/10/26 11:27:18;;;;;;;12.43;3.40;;;19.20;49.80;;;;;;4924851;28;46544;-68
2022/10/26 11:30:02;;;;;;;10.50;2.27;;;19.40;48.80;;;;;;4976639;28;46554;-67
2022/10/26 11:32:42;;;;;;;8.87;3.20;;;19.40;49.70;;;;;;4962225;28;46521;-67
2022/10/26 11:35:39;;;;;;;5.37;1.90;;;19.40;49.20;;;;;;4958629;28;47974;-67
2022/10/26 11:38:14;;;;;;;6.47;2.03;;;19.40;49.30;;;;;;4963218;28;45898;-67
2022/10/26 11:40:53;;;;;;;9.23;2.60;;;19.50;48.10;;;;;;4962813;28;46603;-67
2022/10/26 11:43:23;;;;;;;7.77;1.70;;;19.50;49.20;;;;;;4963022;28;46802;-67
2022/10/26 11:46:15;;;;;;;32.77;14.07;;;19.60;49.00;;;;;;4956281;28;48175;-67
2022/10/26 11:48:47;;;;;;;13.73;2.60;;;;;;;;;;4980203;28;46461;-67
2022/10/26 11:51:22;;;;;;;6.93;2.27;;;19.50;48.20;;;;;;4964613;28;45843;-66
2022/10/26 11:53:50;;;;;;;12.40;2.23;;;19.60;49.10;;;;;;4968227;28;46531;-67
2022/10/26 11:56:29;;;;;;;8.20;2.60;;;19.70;49.30;;;;;;4963655;28;49145;-67
2022/10/26 11:58:56;;;;;;;9.13;2.23;;;20.10;48.00;;;;;;4962552;28;46521;-67
2022/10/26 12:01:23;;;;;;;10.03;2.57;;;20.00;48.80;;;;;;4963975;28;46827;-67
2022/10/26 12:03:53;;;;;;;10.70;2.90;;;20.20;48.80;;;;;;4961937;28;46560;-67
2022/10/26 12:06:25;;;;;;;13.37;2.67;;;20.30;47.90;;;;;;4966004;28;46429;-67
2022/10/26 12:08:58;;;;;;;9.50;2.40;;;20.50;47.00;;;;;;4947897;28;46498;-67
2022/10/26 12:11:48;;;;;;;10.00;2.90;;;20.50;48.10;;;;;;4963787;28;46485;-67
2022/10/26 12:14:34;;;;;;;6.83;2.00;;;20.50;47.70;;;;;;4980138;28;46378;-67
2022/10/26 12:17:28;;;;;;;11.47;2.37;;;20.40;48.00;;;;;;4963867;28;46552;-67
2022/10/26 12:20:27;;;;;;;7.93;2.23;;;20.30;46.80;;;;;;4964585;28;46501;-67
2022/10/26 12:22:53;;;;;;;5.27;2.10;;;20.20;47.90;;;;;;4964334;28;46379;-67
2022/10/26 12:25:21;;;;;;;11.23;2.47;;;20.10;48.30;;;;;;4978134;28;46441;-67
2022/10/26 12:27:46;;;;;;;6.70;2.20;;;20.10;48.20;;;;;;4959414;28;47699;-67
2022/10/26 12:30:26;;;;;;;16.50;2.47;;;20.20;46.70;;;;;;4981210;28;46449;-67
2022/10/26 12:33:02;;;;;;;8.17;2.50;;;20.20;47.80;;;;;;4965090;28;46494;-67
2022/10/26 12:35:42;;;;;;;10.23;2.20;;;20.30;47.90;;;;;;4963317;28;46428;-67
2022/10/26 12:38:23;;;;;;;17.50;2.50;;;20.50;48.10;;;;;;4965600;28;48808;-66
2022/10/26 12:41:09;;;;;;;6.70;2.30;;;20.70;46.50;;;;;;4960848;28;46414;-66
2022/10/26 12:43:35;;;;;;;7.77;2.00;;;20.80;47.20;;;;;;4964551;28;46405;-66
2022/10/26 12:46:13;;;;;;;8.63;2.47;;;20.80;46.80;;;;;;4962234;28;46393;-66
2022/10/26 12:48:41;;;;;;;8.33;2.20;;;20.60;47.20;;;;;;4979487;28;46771;-66
2022/10/26 12:51:25;;;;;;;14.33;3.13;;;20.50;47.00;;;;;;4963385;28;46331;-66
2022/10/26 12:54:04;;;;;;;10.43;2.80;;;20.40;48.00;;;;;;4958725;28;46615;-66
2022/10/26 12:56:53;;;;;;;6.53;2.07;;;20.30;47.90;;;;;;4959928;28;46413;-66
2022/10/26 12:59:22;;;;;;;8.23;2.30;;;20.20;46.70;;;;;;4976564;28;46453;-66
2022/10/26 13:02:09;;;;;;;11.03;2.47;;;20.20;47.90;;;;;;4963785;28;46993;-66
2022/10/26 13:05:00;;;;;;;7.50;2.10;;;20.30;47.90;;;;;;4964236;28;46562;-66
2022/10/26 13:07:32;;;;;;;7.60;2.50;;;20.30;47.90;;;;;;4961029;28;46698;-65
2022/10/26 13:10:24;;;;;;;9.90;2.30;;;20.30;47.90;;;;;;4980504;28;47069;-66